createdAt,value
2018-06-20T00:01:28.162Z,82.27
2018-06-20T00:04:32.617Z,82.36
2018-06-20T00:07:37.972Z,82.48
2018-06-20T00:10:42.273Z,82.42
2018-06-20T00:13:46.658Z,83.04
2018-06-20T00:16:50.974Z,83.21
2018-06-20T00:19:55.322Z,83.55
2018-06-20T00:22:59.649Z,83.23
2018-06-20T00:26:04.389Z,83.29
2018-06-20T00:29:08.701Z,83.53
2018-06-20T00:32:13.231Z,83.96
2018-06-20T00:35:18.060Z,83.72
2018-06-20T00:38:22.490Z,83.63
2018-06-20T00:41:26.837Z,83.96
2018-06-20T00:44:31.238Z,83.97
2018-06-20T00:47:35.685Z,83.67
2018-06-20T00:50:40.009Z,84.06
2018-06-20T00:53:44.345Z,84.06
2018-06-20T00:56:48.640Z,84.19
2018-06-20T00:59:52.965Z,83.96
2018-06-20T01:02:57.325Z,84.45
2018-06-20T01:06:01.890Z,84.05
2018-06-20T01:09:10.416Z,84.30
2018-06-20T01:12:14.924Z,84.47
2018-06-20T01:15:19.876Z,84.68
2018-06-20T01:18:24.250Z,84.64
2018-06-20T01:21:28.633Z,84.69
2018-06-20T01:24:32.962Z,85.17
2018-06-20T01:27:37.437Z,85.10
2018-06-20T01:30:41.753Z,84.91
2018-06-20T01:33:46.223Z,85.24
2018-06-20T01:36:50.925Z,84.62
2018-06-20T01:39:55.238Z,85.00
2018-06-20T01:42:59.553Z,84.91
2018-06-20T01:46:04.336Z,85.37
2018-06-20T01:49:08.682Z,84.97
2018-06-20T01:52:13.404Z,85.36
2018-06-20T01:55:17.725Z,85.25
2018-06-20T01:58:22.743Z,84.96
2018-06-20T02:01:27.054Z,85.23
2018-06-20T02:04:31.373Z,85.71
2018-06-20T02:07:35.666Z,85.36
2018-06-20T02:10:40.002Z,85.85
2018-06-20T02:13:44.285Z,85.47
2018-06-20T02:16:48.592Z,85.22
2018-06-20T02:19:52.884Z,85.29
2018-06-20T02:22:57.348Z,85.21
2018-06-20T02:26:01.648Z,85.27
2018-06-20T02:29:06.037Z,85.33
2018-06-20T02:32:10.164Z,86.07
2018-06-20T02:35:14.227Z,86.13
2018-06-20T02:38:18.515Z,85.49
2018-06-20T02:41:22.809Z,85.78
2018-06-20T02:44:27.145Z,86.28
2018-06-20T02:47:36.629Z,85.92
2018-06-20T02:50:40.939Z,86.03
2018-06-20T02:53:45.308Z,85.99
2018-06-20T02:56:49.606Z,86.08
2018-06-20T02:59:54.079Z,86.27
2018-06-20T03:02:58.454Z,86.13
2018-06-20T03:06:03.022Z,86.43
2018-06-20T03:09:14.720Z,86.01
2018-06-20T03:12:19.009Z,86.23
2018-06-20T03:15:23.744Z,85.97
2018-06-20T03:18:28.103Z,85.92
2018-06-20T03:21:32.220Z,86.00
2018-06-20T03:24:36.532Z,86.26
2018-06-20T03:27:40.848Z,86.54
2018-06-20T03:30:45.929Z,85.44
2018-06-20T03:33:50.239Z,86.60
2018-06-20T03:36:55.058Z,86.20
2018-06-20T03:40:01.462Z,86.10
2018-06-20T03:43:05.936Z,85.80
2018-06-20T03:46:10.440Z,85.71
2018-06-20T03:49:15.179Z,85.91
2018-06-20T03:52:19.736Z,85.80
2018-06-20T03:55:24.335Z,85.06
2018-06-20T03:58:28.675Z,84.92
2018-06-20T04:01:33.085Z,85.15
2018-06-20T04:04:37.452Z,85.44
2018-06-20T04:07:42.698Z,85.19
2018-06-20T04:10:47.005Z,84.49
2018-06-20T04:13:52.174Z,84.47
2018-06-20T04:16:56.605Z,83.54
2018-06-20T04:20:01.105Z,83.78
2018-06-20T04:23:05.574Z,83.68
2018-06-20T04:26:32.115Z,83.18
2018-06-20T04:29:36.461Z,82.66
2018-06-20T04:32:41.365Z,82.74
2018-06-20T04:35:45.855Z,82.24
2018-06-20T04:38:50.294Z,81.79
2018-06-20T04:41:55.566Z,81.93
2018-06-20T04:44:59.858Z,81.50
2018-06-20T04:48:04.297Z,81.12
2018-06-20T04:51:34.561Z,80.81
2018-06-20T04:54:39.576Z,79.67
2018-06-20T04:57:43.957Z,79.48
2018-06-20T05:00:48.806Z,79.27
2018-06-20T05:03:53.169Z,78.67
2018-06-20T05:06:57.512Z,78.74
2018-06-20T05:10:01.896Z,79.54
2018-06-20T05:13:06.513Z,78.89
2018-06-20T05:16:10.797Z,78.64
2018-06-20T05:19:15.306Z,77.92
2018-06-20T05:22:19.734Z,77.76
2018-06-20T05:25:24.013Z,77.74
2018-06-20T05:28:28.381Z,78.14
2018-06-20T05:31:32.982Z,77.65
2018-06-20T05:34:37.383Z,77.38
2018-06-20T05:37:41.726Z,76.33
2018-06-20T05:40:47.089Z,77.09
2018-06-20T05:43:51.510Z,76.27
2018-06-20T05:46:56.930Z,76.84
2018-06-20T05:50:01.446Z,76.27
2018-06-20T05:53:07.457Z,75.29
2018-06-20T05:56:12.349Z,75.28
2018-06-20T05:59:16.674Z,74.54
2018-06-20T06:02:21.206Z,72.34
2018-06-20T06:05:25.686Z,67.88
2018-06-20T06:08:29.997Z,63.61
2018-06-20T06:11:34.545Z,60.84
2018-06-20T06:14:38.904Z,59.41
2018-06-20T06:17:44.127Z,56.41
2018-06-20T06:20:48.493Z,52.96
2018-06-20T06:23:52.990Z,51.85
2018-06-20T06:26:57.873Z,49.87
2018-06-20T06:30:02.251Z,49.16
2018-06-20T06:33:07.395Z,48.71
2018-06-20T06:36:11.720Z,50.54
2018-06-20T06:39:16.523Z,49.77
2018-06-20T06:42:20.792Z,51.56
2018-06-20T06:45:25.313Z,49.90
2018-06-20T06:48:29.792Z,49.31
2018-06-20T06:51:34.126Z,46.40
2018-06-20T06:54:38.590Z,45.69
2018-06-20T06:57:44.026Z,45.48
2018-06-20T07:00:48.445Z,45.66
2018-06-20T07:03:52.776Z,48.14
2018-06-20T07:06:57.620Z,49.10
2018-06-20T07:10:01.923Z,46.99
2018-06-20T07:13:06.593Z,48.62
2018-06-20T07:16:11.529Z,47.73
2018-06-20T07:19:15.857Z,45.91
2018-06-20T07:22:20.144Z,49.27
2018-06-20T07:25:24.574Z,49.06
2018-06-20T07:28:29.102Z,46.48
2018-06-20T07:31:33.385Z,48.58
2018-06-20T07:34:37.730Z,48.07
2018-06-20T07:37:42.086Z,48.57
2018-06-20T07:40:46.975Z,50.21
2018-06-20T07:43:51.828Z,47.85
2018-06-20T07:46:56.122Z,48.92
2018-06-20T07:50:00.999Z,48.57
2018-06-20T07:53:06.515Z,48.93
2018-06-20T07:56:10.873Z,50.72
2018-06-20T07:59:16.125Z,53.37
2018-06-20T08:02:42.880Z,52.71
2018-06-20T08:05:52.728Z,52.01
2018-06-20T08:09:02.733Z,52.37
2018-06-20T08:12:12.206Z,51.77
2018-06-20T08:15:21.667Z,53.97
2018-06-20T08:18:31.213Z,49.33
2018-06-20T08:21:35.731Z,48.38
2018-06-20T08:24:55.773Z,47.78
2018-06-20T08:28:00.185Z,52.16
2018-06-20T08:31:04.276Z,51.78
2018-06-20T08:34:09.206Z,51.92
2018-06-20T08:37:13.563Z,51.58
2018-06-20T08:40:17.937Z,55.21
2018-06-20T08:43:22.071Z,50.79
2018-06-20T08:46:26.781Z,51.33
2018-06-20T08:49:31.297Z,48.54
2018-06-20T08:52:35.580Z,48.63
2018-06-20T08:55:39.904Z,48.54
2018-06-20T08:58:44.319Z,50.89
2018-06-20T09:01:48.634Z,48.52
2018-06-20T09:04:58.234Z,49.25
2018-06-20T09:09:06.377Z,46.69
2018-06-20T09:12:15.908Z,48.98
2018-06-20T09:16:25.220Z,48.73
2018-06-20T09:19:34.779Z,48.01
2018-06-20T09:22:39.818Z,47.45
2018-06-20T09:25:44.415Z,45.62
2018-06-20T09:28:48.759Z,49.04
2018-06-20T09:31:53.423Z,43.97
2018-06-20T09:34:57.748Z,45.38
2018-06-20T09:38:02.135Z,46.16
2018-06-20T09:41:06.865Z,43.89
2018-06-20T09:44:11.281Z,45.03
2018-06-20T09:47:17.226Z,43.56
2018-06-20T09:50:27.108Z,43.14
2018-06-20T09:53:31.710Z,45.88
2018-06-20T09:56:36.038Z,45.17
2018-06-20T09:59:45.886Z,43.58
2018-06-20T10:02:55.337Z,44.30
2018-06-20T10:09:19.497Z,46.45
2018-06-20T10:12:30.330Z,45.44
2018-06-20T10:15:35.264Z,45.91
2018-06-20T10:18:40.272Z,45.89
2018-06-20T10:21:44.561Z,47.21
2018-06-20T10:24:48.923Z,44.19
2018-06-20T10:27:53.229Z,43.81
2018-06-20T10:30:57.506Z,46.22
2018-06-20T10:34:01.809Z,43.66
2018-06-20T10:37:06.728Z,42.34
2018-06-20T10:40:11.085Z,42.69
2018-06-20T10:43:16.620Z,42.91
2018-06-20T10:46:26.727Z,43.03
2018-06-20T10:49:30.919Z,46.43
2018-06-20T10:52:35.264Z,41.56
2018-06-20T10:55:40.337Z,42.20
2018-06-20T10:58:49.778Z,43.28
2018-06-20T11:01:59.474Z,44.80
2018-06-20T11:05:09.957Z,40.54
2018-06-20T11:08:19.345Z,42.28
2018-06-20T11:12:29.713Z,43.30
2018-06-20T11:15:34.896Z,41.99
2018-06-20T11:18:42.088Z,42.94
2018-06-20T11:21:48.257Z,41.83
2018-06-20T11:24:52.584Z,40.89
2018-06-20T11:27:56.948Z,42.80
2018-06-20T11:31:01.408Z,40.23
2018-06-20T11:34:05.701Z,39.66
2018-06-20T11:37:10.758Z,41.51
2018-06-20T11:40:15.052Z,41.46
2018-06-20T11:43:21.439Z,41.05
2018-06-20T11:46:30.990Z,40.86
2018-06-20T11:49:35.356Z,40.54
2018-06-20T11:52:44.931Z,41.62
2018-06-20T11:55:50.405Z,42.67
2018-06-20T11:58:59.847Z,40.46
2018-06-20T12:02:09.514Z,40.17
2018-06-20T12:05:20.110Z,37.77
2018-06-20T12:08:29.614Z,40.05
2018-06-20T12:11:40.059Z,39.67
2018-06-20T12:14:49.805Z,40.21
2018-06-20T12:17:59.371Z,38.97
2018-06-20T12:21:08.803Z,38.63
2018-06-20T12:24:18.633Z,37.18
2018-06-20T12:27:28.188Z,38.69
2018-06-20T12:30:37.984Z,41.19
2018-06-20T12:33:47.609Z,37.10
2018-06-20T12:36:57.301Z,40.07
2018-06-20T12:40:09.682Z,38.07
2018-06-20T12:43:19.246Z,38.56
2018-06-20T12:46:32.773Z,39.73
2018-06-20T12:49:40.876Z,38.66
2018-06-20T12:52:45.345Z,38.81
2018-06-20T12:55:50.234Z,38.23
2018-06-20T12:58:54.543Z,38.49
2018-06-20T13:01:58.857Z,37.43
2018-06-20T13:05:03.208Z,37.70
2018-06-20T13:08:07.525Z,39.29
2018-06-20T13:11:12.029Z,37.75
2018-06-20T13:14:17.050Z,39.21
2018-06-20T13:17:21.589Z,40.95
2018-06-20T13:20:26.475Z,39.16
2018-06-20T13:23:31.644Z,39.37
2018-06-20T13:26:35.899Z,37.38
2018-06-20T13:29:40.969Z,36.76
2018-06-20T13:32:50.478Z,35.60
2018-06-20T13:36:00.254Z,37.46
2018-06-20T13:39:13.435Z,37.08
2018-06-20T13:42:22.951Z,37.53
2018-06-20T13:45:32.860Z,39.09
2018-06-20T13:48:38.100Z,37.05
2018-06-20T13:51:43.197Z,39.04
2018-06-20T13:54:47.565Z,38.17
2018-06-20T13:57:52.249Z,38.59
2018-06-20T14:00:56.738Z,37.81
2018-06-20T14:04:01.074Z,36.78
2018-06-20T14:07:06.461Z,38.74
2018-06-20T14:10:11.119Z,36.88
2018-06-20T14:13:15.524Z,39.76
2018-06-20T14:16:19.955Z,37.86
2018-06-20T14:19:29.489Z,36.40
2018-06-20T14:22:33.898Z,40.53
2018-06-20T14:25:38.351Z,38.04
2018-06-20T14:28:42.907Z,37.53
2018-06-20T14:31:52.272Z,37.63
2018-06-20T14:35:01.979Z,38.33
2018-06-20T14:38:11.664Z,37.28
2018-06-20T14:41:20.350Z,38.73
2018-06-20T14:44:24.682Z,37.84
2018-06-20T14:47:29.558Z,36.31
2018-06-20T14:50:34.204Z,38.00
2018-06-20T14:53:39.380Z,38.39
2018-06-20T14:56:43.934Z,37.25
2018-06-20T14:59:48.677Z,38.86
2018-06-20T15:02:53.890Z,37.36
2018-06-20T15:05:58.861Z,38.13
2018-06-20T15:09:03.644Z,38.64
2018-06-20T15:12:07.831Z,40.09
2018-06-20T15:15:12.710Z,40.92
2018-06-20T15:18:17.352Z,40.73
2018-06-20T15:21:21.674Z,41.05
2018-06-20T15:24:26.247Z,42.78
2018-06-20T15:27:35.765Z,45.40
2018-06-20T15:30:45.221Z,43.05
2018-06-20T15:33:54.828Z,43.46
2018-06-20T15:37:04.380Z,44.24
2018-06-20T15:40:08.770Z,44.87
2018-06-20T15:43:13.397Z,44.61
2018-06-20T15:46:17.763Z,42.77
2018-06-20T15:49:23.098Z,41.67
2018-06-20T15:52:27.577Z,43.83
2018-06-20T15:55:32.406Z,44.03
2018-06-20T15:58:36.892Z,44.63
2018-06-20T16:01:41.353Z,44.78
2018-06-20T16:04:46.870Z,42.64
2018-06-20T16:07:52.412Z,43.04
2018-06-20T16:10:56.977Z,42.30
2018-06-20T16:14:01.266Z,45.20
2018-06-20T16:17:05.931Z,43.37
2018-06-20T16:20:15.521Z,44.27
2018-06-20T16:23:26.536Z,43.99
2018-06-20T16:26:36.834Z,42.76
2018-06-20T16:29:46.517Z,43.30
2018-06-20T16:32:51.822Z,43.97
2018-06-20T16:35:56.317Z,45.31
2018-06-20T16:39:00.757Z,44.08
2018-06-20T16:42:05.157Z,44.58
2018-06-20T16:45:09.611Z,45.08
2018-06-20T16:48:14.022Z,43.58
2018-06-20T16:51:19.338Z,39.26
2018-06-20T16:54:23.734Z,39.54
2018-06-20T16:57:28.944Z,37.11
2018-06-20T17:00:33.422Z,40.04
2018-06-20T17:03:37.940Z,41.58
2018-06-20T17:06:42.238Z,41.39
2018-06-20T17:09:47.286Z,40.96
2018-06-20T17:12:57.228Z,42.43
2018-06-20T17:16:06.833Z,40.90
2018-06-20T17:19:17.738Z,44.35
2018-06-20T17:22:27.409Z,47.12
2018-06-20T17:25:33.952Z,46.88
2018-06-20T17:28:38.374Z,46.56
2018-06-20T17:31:43.517Z,47.17
2018-06-20T17:34:48.134Z,47.22
2018-06-20T17:37:52.541Z,48.12
2018-06-20T17:40:56.918Z,47.89
2018-06-20T17:44:01.524Z,47.30
2018-06-20T17:47:05.902Z,48.16
2018-06-20T17:50:12.061Z,48.97
2018-06-20T17:53:16.569Z,49.91
2018-06-20T17:56:20.963Z,49.70
2018-06-20T17:59:25.418Z,49.75
2018-06-20T18:02:29.985Z,50.27
2018-06-20T18:05:39.691Z,50.65
2018-06-20T18:08:49.302Z,50.20
2018-06-20T18:11:58.822Z,48.93
2018-06-20T18:15:08.923Z,49.69
2018-06-20T18:18:13.489Z,51.41
2018-06-20T18:21:17.982Z,50.99
2018-06-20T18:24:22.406Z,53.19
2018-06-20T18:27:26.757Z,53.75
2018-06-20T18:30:31.182Z,53.69
2018-06-20T18:33:36.702Z,52.55
2018-06-20T18:36:41.017Z,54.36
2018-06-20T18:39:50.425Z,55.53
2018-06-20T18:42:54.815Z,53.88
2018-06-20T18:45:59.108Z,55.38
2018-06-20T18:49:03.377Z,54.26
2018-06-20T18:52:07.724Z,53.75
2018-06-20T18:55:12.118Z,54.44
2018-06-20T18:58:21.565Z,54.30
2018-06-20T19:01:32.363Z,55.10
2018-06-20T19:04:41.846Z,55.72
2018-06-20T19:07:52.411Z,56.18
2018-06-20T19:10:56.749Z,56.90
2018-06-20T19:14:02.411Z,57.68
2018-06-20T19:17:06.801Z,57.89
2018-06-20T19:20:11.173Z,58.43
2018-06-20T19:23:15.622Z,58.63
2018-06-20T19:26:21.232Z,59.05
2018-06-20T19:29:25.604Z,59.25
2018-06-20T19:32:30.171Z,58.97
2018-06-20T19:35:34.605Z,59.55
2018-06-20T19:38:39.391Z,59.84
2018-06-20T19:41:43.752Z,60.27
2018-06-20T19:44:48.366Z,61.00
2018-06-20T19:47:52.702Z,61.75
2018-06-20T19:50:57.037Z,62.03
2018-06-20T19:54:01.354Z,62.40
2018-06-20T19:57:05.755Z,62.65
2018-06-20T20:00:10.102Z,63.19
2018-06-20T20:03:15.703Z,63.40
2018-06-20T20:06:20.217Z,64.14
2018-06-20T20:09:24.745Z,64.92
2018-06-20T20:12:29.769Z,66.41
2018-06-20T20:15:34.141Z,65.94
2018-06-20T20:18:38.811Z,66.65
2018-06-20T20:21:43.287Z,67.42
2018-06-20T20:24:47.696Z,67.51
2018-06-20T20:27:52.083Z,67.54
2018-06-20T20:30:56.464Z,68.05
2018-06-20T20:34:00.739Z,67.50
2018-06-20T20:37:05.258Z,67.80
2018-06-20T20:40:09.648Z,68.02
2018-06-20T20:43:14.109Z,68.09
2018-06-20T20:46:18.658Z,68.69
2018-06-20T20:49:23.060Z,68.97
2018-06-20T20:52:27.503Z,69.33
2018-06-20T20:55:31.862Z,69.69
2018-06-20T20:58:36.317Z,69.57
2018-06-20T21:01:43.057Z,69.85
2018-06-20T21:04:47.453Z,70.39
2018-06-20T21:07:51.918Z,69.89
2018-06-20T21:10:56.779Z,70.37
2018-06-20T21:14:01.990Z,70.05
2018-06-20T21:17:06.310Z,71.67
2018-06-20T21:20:10.673Z,70.98
2018-06-20T21:23:15.158Z,71.25
2018-06-20T21:26:19.448Z,71.13
2018-06-20T21:29:23.793Z,71.95
2018-06-20T21:32:28.199Z,72.26
2018-06-20T21:35:32.611Z,73.02
2018-06-20T21:38:36.926Z,72.91
2018-06-20T21:41:41.682Z,72.69
2018-06-20T21:44:45.979Z,72.21
2018-06-20T21:47:51.135Z,73.13
2018-06-20T21:50:55.586Z,73.73
2018-06-20T21:53:59.914Z,73.29
2018-06-20T21:57:04.816Z,75.20
2018-06-20T22:00:11.430Z,74.81
2018-06-20T22:03:15.766Z,75.04
2018-06-20T22:06:20.114Z,74.47
2018-06-20T22:09:24.481Z,74.73
2018-06-20T22:12:28.925Z,75.93
2018-06-20T22:15:33.392Z,75.27
2018-06-20T22:18:37.668Z,75.62
2018-06-20T22:21:42.385Z,76.04
2018-06-20T22:24:46.750Z,75.83
2018-06-20T22:27:51.662Z,76.16
2018-06-20T22:30:56.125Z,75.92
2018-06-20T22:34:00.468Z,75.65
2018-06-20T22:37:04.653Z,76.59
2018-06-20T22:40:09.396Z,76.33
2018-06-20T22:43:13.815Z,76.89
2018-06-20T22:46:18.195Z,76.34
2018-06-20T22:49:22.517Z,76.68
2018-06-20T22:52:27.897Z,77.08
2018-06-20T22:55:32.757Z,77.81
2018-06-20T22:58:37.025Z,77.67
2018-06-20T23:01:41.380Z,77.55
2018-06-20T23:04:47.458Z,77.39
2018-06-20T23:07:52.586Z,77.90
2018-06-20T23:10:57.080Z,78.53
2018-06-20T23:14:01.346Z,78.30
2018-06-20T23:17:05.656Z,77.78
2018-06-20T23:20:09.937Z,77.97
2018-06-20T23:23:14.229Z,77.81
2018-06-20T23:26:19.185Z,78.52
2018-06-20T23:29:23.440Z,77.87
2018-06-20T23:32:27.828Z,78.67
2018-06-20T23:35:32.095Z,78.93
2018-06-20T23:38:36.357Z,78.56
2018-06-20T23:41:41.081Z,78.83
2018-06-20T23:44:45.373Z,79.42
2018-06-20T23:47:49.641Z,79.68
2018-06-20T23:50:53.962Z,79.30
2018-06-20T23:53:58.317Z,79.66
2018-06-20T23:57:02.857Z,80.42
